sensor_id;sensor_type;location;lat;lon;timestamp;pressure;altitude;pressure_sealevel;temperature;humidity
70434;BME280;57876;47.792;12.960;2023-01-16T00:02:22;95903.69;;;16.85;45.05
70434;BME280;57876;47.792;12.960;2023-01-16T00:04:46;95914.03;;;16.91;45.09
70434;BME280;57876;47.792;12.960;2023-01-16T00:07:10;95908.13;;;16.89;45.39
70434;BME280;57876;47.792;12.960;2023-01-16T00:09:35;95905.38;;;16.89;44.97
70434;BME280;57876;47.792;12.960;2023-01-16T00:11:59;95895.56;;;16.88;45.29
70434;BME280;57876;47.792;12.960;2023-01-16T00:14:24;95888.09;;;16.85;45.30
70434;BME280;57876;47.792;12.960;2023-01-16T00:16:48;95883.31;;;16.82;44.96
70434;BME280;57876;47.792;12.960;2023-01-16T00:19:12;95875.84;;;16.79;45.13
70434;BME280;57876;47.792;12.960;2023-01-16T00:21:37;95875.47;;;16.81;44.86
70434;BME280;57876;47.792;12.960;2023-01-16T00:24:01;95875.91;;;16.83;45.24
70434;BME280;57876;47.792;12.960;2023-01-16T00:26:27;95882.53;;;16.82;44.90
70434;BME280;57876;47.792;12.960;2023-01-16T00:28:52;95872.16;;;16.75;44.81
70434;BME280;57876;47.792;12.960;2023-01-16T00:31:16;95871.53;;;16.78;44.92
70434;BME280;57876;47.792;12.960;2023-01-16T00:33:41;95871.53;;;16.78;45.42
70434;BME280;57876;47.792;12.960;2023-01-16T00:36:07;95864.34;;;16.73;44.99
70434;BME280;57876;47.792;12.960;2023-01-16T00:38:31;95865.13;;;16.74;45.23
70434;BME280;57876;47.792;12.960;2023-01-16T00:40:56;95863.19;;;16.74;45.04
70434;BME280;57876;47.792;12.960;2023-01-16T00:43:21;95862.38;;;16.74;44.77
70434;BME280;57876;47.792;12.960;2023-01-16T00:45:46;95851.00;;;16.72;45.08
70434;BME280;57876;47.792;12.960;2023-01-16T00:48:10;95860.81;;;16.73;45.04
70434;BME280;57876;47.792;12.960;2023-01-16T00:50:34;95847.84;;;16.70;45.33
70434;BME280;57876;47.792;12.960;2023-01-16T00:52:59;95846.72;;;16.71;45.02
70434;BME280;57876;47.792;12.960;2023-01-16T00:55:24;95843.84;;;16.67;45.10
70434;BME280;57876;47.792;12.960;2023-01-16T00:57:48;95847.41;;;16.68;44.94
70434;BME280;57876;47.792;12.960;2023-01-16T01:00:25;95841.94;;;16.68;45.01
70434;BME280;57876;47.792;12.960;2023-01-16T01:02:50;95830.81;;;16.61;44.89
70434;BME280;57876;47.792;12.960;2023-01-16T01:05:15;95829.00;;;16.65;45.15
70434;BME280;57876;47.792;12.960;2023-01-16T01:07:39;95830.91;;;16.64;45.32
70434;BME280;57876;47.792;12.960;2023-01-16T01:10:04;95825.34;;;16.61;45.27
70434;BME280;57876;47.792;12.960;2023-01-16T01:12:28;95827.75;;;16.62;44.91
70434;BME280;57876;47.792;12.960;2023-01-16T01:14:53;95813.53;;;16.57;45.60
70434;BME280;57876;47.792;12.960;2023-01-16T01:17:17;95815.59;;;16.60;45.26
70434;BME280;57876;47.792;12.960;2023-01-16T01:19:42;95813.66;;;16.60;44.86
70434;BME280;57876;47.792;12.960;2023-01-16T01:22:06;95806.59;;;16.59;45.24
70434;BME280;57876;47.792;12.960;2023-01-16T01:24:30;95803.75;;;16.56;45.17
70434;BME280;57876;47.792;12.960;2023-01-16T01:26:55;95803.75;;;16.56;45.23
70434;BME280;57876;47.792;12.960;2023-01-16T01:29:19;95792.75;;;16.52;45.26
70434;BME280;57876;47.792;12.960;2023-01-16T01:31:44;95789.66;;;16.54;45.37
70434;BME280;57876;47.792;12.960;2023-01-16T01:34:08;95794.69;;;16.51;44.95
70434;BME280;57876;47.792;12.960;2023-01-16T01:36:32;95792.38;;;16.54;45.05
70434;BME280;57876;47.792;12.960;2023-01-16T01:38:57;95788.41;;;16.51;44.90
70434;BME280;57876;47.792;12.960;2023-01-16T01:41:21;95783.31;;;16.49;45.39
70434;BME280;57876;47.792;12.960;2023-01-16T01:43:47;95786.94;;;16.54;45.40
70434;BME280;57876;47.792;12.960;2023-01-16T01:48:45;95772.75;;;16.48;45.32
70434;BME280;57876;47.792;12.960;2023-01-16T01:51:17;95773.13;;;16.46;44.94
70434;BME280;57876;47.792;12.960;2023-01-16T01:56:18;95761.75;;;16.44;44.97
70434;BME280;57876;47.792;12.960;2023-01-16T01:58:48;95756.63;;;16.43;45.22
70434;BME280;57876;47.792;12.960;2023-01-16T02:01:14;95757.53;;;16.47;45.20
70434;BME280;57876;47.792;12.960;2023-01-16T02:03:41;95736.28;;;16.40;45.00
70434;BME280;57876;47.792;12.960;2023-01-16T02:06:16;95741.47;;;16.45;44.95
70434;BME280;57876;47.792;12.960;2023-01-16T02:08:42;95742.63;;;16.44;45.09
70434;BME280;57876;47.792;12.960;2023-01-16T02:11:13;95734.34;;;16.41;45.38
70434;BME280;57876;47.792;12.960;2023-01-16T02:13:49;95739.44;;;16.42;45.10
70434;BME280;57876;47.792;12.960;2023-01-16T02:16:14;95738.66;;;16.42;44.80
70434;BME280;57876;47.792;12.960;2023-01-16T02:18:57;95723.34;;;16.37;45.54
70434;BME280;57876;47.792;12.960;2023-01-16T02:22:06;95719.91;;;16.40;45.17
70434;BME280;57876;47.792;12.960;2023-01-16T02:33:37;95695.59;;;16.35;44.96
70434;BME280;57876;47.792;12.960;2023-01-16T02:41:21;95678.78;;;16.33;44.90
70434;BME280;57876;47.792;12.960;2023-01-16T02:43:57;95677.97;;;16.33;45.41
70434;BME280;57876;47.792;12.960;2023-01-16T02:46:33;95680.13;;;16.39;44.98
70434;BME280;57876;47.792;12.960;2023-01-16T02:51:56;95666.94;;;16.41;45.49
70434;BME280;57876;47.792;12.960;2023-01-16T02:54:35;95669.66;;;16.41;45.05
70434;BME280;57876;47.792;12.960;2023-01-16T02:57:16;95663.38;;;16.41;45.20
70434;BME280;57876;47.792;12.960;2023-01-16T02:59:42;95670.06;;;16.43;45.14
70434;BME280;57876;47.792;12.960;2023-01-16T03:02:07;95655.31;;;16.44;45.29
70434;BME280;57876;47.792;12.960;2023-01-16T03:04:52;95649.72;;;16.41;45.15
70434;BME280;57876;47.792;12.960;2023-01-16T03:26:23;95612.25;;;16.38;45.33
70434;BME280;57876;47.792;12.960;2023-01-16T03:29:01;95609.88;;;16.36;45.29
70434;BME280;57876;47.792;12.960;2023-01-16T03:31:33;95610.41;;;16.42;44.98
70434;BME280;57876;47.792;12.960;2023-01-16T03:34:20;95590.84;;;16.40;44.95
70434;BME280;57876;47.792;12.960;2023-01-16T03:36:51;95581.00;;;16.35;45.16
70434;BME280;57876;47.792;12.960;2023-01-16T03:39:26;95574.84;;;16.38;45.17
70434;BME280;57876;47.792;12.960;2023-01-16T03:41:54;95578.78;;;16.41;45.34
70434;BME280;57876;47.792;12.960;2023-01-16T03:44:33;95549.41;;;16.34;45.29
70434;BME280;57876;47.792;12.960;2023-01-16T03:47:00;95565.59;;;16.43;45.00
70434;BME280;57876;47.792;12.960;2023-01-16T03:49:28;95558.19;;;16.43;45.25
70434;BME280;57876;47.792;12.960;2023-01-16T03:51:58;95562.06;;;16.42;45.24
70434;BME280;57876;47.792;12.960;2023-01-16T03:54:42;95547.97;;;16.40;45.05
70434;BME280;57876;47.792;12.960;2023-01-16T03:57:17;95549.22;;;16.43;45.12
70434;BME280;57876;47.792;12.960;2023-01-16T03:59:44;95540.56;;;16.41;45.18
70434;BME280;57876;47.792;12.960;2023-01-16T04:02:30;95529.59;;;16.37;45.36
70434;BME280;57876;47.792;12.960;2023-01-16T04:05:08;95530.47;;;16.41;45.12
70434;BME280;57876;47.792;12.960;2023-01-16T04:07:43;95524.56;;;16.39;45.33
70434;BME280;57876;47.792;12.960;2023-01-16T04:10:38;95529.66;;;16.41;45.42
70434;BME280;57876;47.792;12.960;2023-01-16T04:13:17;95525.03;;;16.41;45.12
70434;BME280;57876;47.792;12.960;2023-01-16T04:15:47;95513.66;;;16.39;45.27
70434;BME280;57876;47.792;12.960;2023-01-16T04:18:12;95499.94;;;16.36;45.46
70434;BME280;57876;47.792;12.960;2023-01-16T04:20:39;95497.63;;;16.38;45.29
70434;BME280;57876;47.792;12.960;2023-01-16T04:23:05;95496.06;;;16.37;45.11
70434;BME280;57876;47.792;12.960;2023-01-16T04:25:30;95485.22;;;16.40;45.32
70434;BME280;57876;47.792;12.960;2023-01-16T04:27:54;95480.91;;;16.39;44.89
70434;BME280;57876;47.792;12.960;2023-01-16T04:30:18;95475.91;;;16.41;44.99
70434;BME280;57876;47.792;12.960;2023-01-16T04:32:43;95471.16;;;16.38;45.36
70434;BME280;57876;47.792;12.960;2023-01-16T04:35:08;95469.28;;;16.42;45.50
70434;BME280;57876;47.792;12.960;2023-01-16T04:37:32;95449.34;;;16.38;45.26
70434;BME280;57876;47.792;12.960;2023-01-16T04:39:57;95447.72;;;16.37;45.04
70434;BME280;57876;47.792;12.960;2023-01-16T04:42:23;95446.59;;;16.38;45.35
70434;BME280;57876;47.792;12.960;2023-01-16T04:44:47;95437.25;;;16.39;44.87
70434;BME280;57876;47.792;12.960;2023-01-16T04:47:12;95428.19;;;16.35;45.43
70434;BME280;57876;47.792;12.960;2023-01-16T04:49:37;95421.59;;;16.36;45.47
70434;BME280;57876;47.792;12.960;2023-01-16T04:52:01;95426.28;;;16.36;45.22
70434;BME280;57876;47.792;12.960;2023-01-16T04:54:25;95410.97;;;16.31;45.21
70434;BME280;57876;47.792;12.960;2023-01-16T04:56:50;95415.00;;;16.37;45.41
70434;BME280;57876;47.792;12.960;2023-01-16T04:59:14;95401.72;;;16.36;45.12
70434;BME280;57876;47.792;12.960;2023-01-16T05:01:39;95386.56;;;16.38;45.09
70434;BME280;57876;47.792;12.960;2023-01-16T05:04:05;95366.59;;;16.34;45.02
70434;BME280;57876;47.792;12.960;2023-01-16T05:06:31;95376.16;;;16.44;45.25
70434;BME280;57876;47.792;12.960;2023-01-16T05:08:56;95362.59;;;16.47;45.47
70434;BME280;57876;47.792;12.960;2023-01-16T05:11:20;95370.44;;;16.49;45.03
70434;BME280;57876;47.792;12.960;2023-01-16T05:13:44;95367.38;;;16.54;44.92
70434;BME280;57876;47.792;12.960;2023-01-16T05:16:09;95354.13;;;16.52;45.46
70434;BME280;57876;47.792;12.960;2023-01-16T05:18:33;95347.09;;;16.51;45.35
70434;BME280;57876;47.792;12.960;2023-01-16T05:20:58;95346.38;;;16.55;45.31
70434;BME280;57876;47.792;12.960;2023-01-16T05:23:23;95338.53;;;16.53;44.92
70434;BME280;57876;47.792;12.960;2023-01-16T05:25:47;95338.91;;;16.51;45.12
70434;BME280;57876;47.792;12.960;2023-01-16T05:28:12;95331.06;;;16.50;45.19
70434;BME280;57876;47.792;12.960;2023-01-16T05:30:37;95334.63;;;16.54;45.01
70434;BME280;57876;47.792;12.960;2023-01-16T05:33:01;95321.66;;;16.47;45.22
70434;BME280;57876;47.792;12.960;2023-01-16T05:35:30;95325.66;;;16.54;45.32
70434;BME280;57876;47.792;12.960;2023-01-16T05:37:55;95321.81;;;16.55;45.00
70434;BME280;57876;47.792;12.960;2023-01-16T05:40:19;95307.00;;;16.56;45.47
70434;BME280;57876;47.792;12.960;2023-01-16T05:42:43;95303.63;;;16.62;45.51
70434;BME280;57876;47.792;12.960;2023-01-16T05:45:08;95289.97;;;16.62;44.98
70434;BME280;57876;47.792;12.960;2023-01-16T05:47:33;95283.00;;;16.65;45.23
70434;BME280;57876;47.792;12.960;2023-01-16T05:49:57;95281.13;;;16.69;45.03
70434;BME280;57876;47.792;12.960;2023-01-16T05:52:22;95278.41;;;16.69;45.19
70434;BME280;57876;47.792;12.960;2023-01-16T05:54:46;95265.97;;;16.71;45.10
70434;BME280;57876;47.792;12.960;2023-01-16T05:57:11;95264.09;;;16.76;45.05
70434;BME280;57876;47.792;12.960;2023-01-16T05:59:36;95261.47;;;16.79;44.96
70434;BME280;57876;47.792;12.960;2023-01-16T06:02:01;95251.38;;;16.83;45.13
70434;BME280;57876;47.792;12.960;2023-01-16T06:04:25;95242.03;;;16.84;45.13
70434;BME280;57876;47.792;12.960;2023-01-16T06:06:49;95233.56;;;16.89;44.92
70434;BME280;57876;47.792;12.960;2023-01-16T06:09:14;95222.69;;;16.93;45.21
70434;BME280;57876;47.792;12.960;2023-01-16T06:11:38;95221.16;;;16.95;44.81
70434;BME280;57876;47.792;12.960;2023-01-16T06:14:03;95215.41;;;17.01;45.40
70434;BME280;57876;47.792;12.960;2023-01-16T06:16:29;95206.03;;;17.02;45.20
70434;BME280;57876;47.792;12.960;2023-01-16T06:18:54;95203.38;;;17.05;45.17
70434;BME280;57876;47.792;12.960;2023-01-16T06:21:18;95181.06;;;17.00;45.45
70434;BME280;57876;47.792;12.960;2023-01-16T06:23:42;95175.28;;;17.05;45.25
70434;BME280;57876;47.792;12.960;2023-01-16T06:26:07;95183.16;;;17.10;45.36
70434;BME280;57876;47.792;12.960;2023-01-16T06:28:33;95186.75;;;17.14;44.89
70434;BME280;57876;47.792;12.960;2023-01-16T06:30:57;95173.88;;;17.14;45.06
70434;BME280;57876;47.792;12.960;2023-01-16T06:33:22;95173.13;;;17.17;45.04
70434;BME280;57876;47.792;12.960;2023-01-16T06:35:46;95168.88;;;17.20;44.99
70434;BME280;57876;47.792;12.960;2023-01-16T06:38:13;95150.50;;;17.17;44.87
70434;BME280;57876;47.792;12.960;2023-01-16T06:40:37;95149.75;;;17.20;45.29
70434;BME280;57876;47.792;12.960;2023-01-16T06:43:01;95148.97;;;17.20;45.14
70434;BME280;57876;47.792;12.960;2023-01-16T06:45:26;95140.78;;;17.20;44.87
70434;BME280;57876;47.792;12.960;2023-01-16T06:47:51;95142.28;;;17.17;44.93
70434;BME280;57876;47.792;12.960;2023-01-16T06:50:16;95131.78;;;17.19;45.03
70434;BME280;57876;47.792;12.960;2023-01-16T06:52:41;95129.06;;;17.19;45.46
70434;BME280;57876;47.792;12.960;2023-01-16T06:55:05;95116.06;;;17.12;45.44
70434;BME280;57876;47.792;12.960;2023-01-16T06:57:29;95118.44;;;17.14;44.94
70434;BME280;57876;47.792;12.960;2023-01-16T06:59:54;95111.41;;;17.13;45.18
70434;BME280;57876;47.792;12.960;2023-01-16T07:02:18;95107.53;;;17.14;44.94
70434;BME280;57876;47.792;12.960;2023-01-16T07:04:43;95098.91;;;17.12;45.16
70434;BME280;57876;47.792;12.960;2023-01-16T07:07:08;95095.03;;;17.13;45.50
70434;BME280;57876;47.792;12.960;2023-01-16T07:09:32;95093.44;;;17.12;45.50
70434;BME280;57876;47.792;12.960;2023-01-16T07:11:57;95078.53;;;17.06;45.01
70434;BME280;57876;47.792;12.960;2023-01-16T07:14:21;95094.59;;;17.11;45.28
70434;BME280;57876;47.792;12.960;2023-01-16T07:17:04;95085.19;;;17.08;45.03
70434;BME280;57876;47.792;12.960;2023-01-16T07:20:04;95073.88;;;17.10;45.17
70434;BME280;57876;47.792;12.960;2023-01-16T07:22:47;95067.63;;;17.09;45.22
70434;BME280;57876;47.792;12.960;2023-01-16T07:25:13;95062.19;;;17.09;45.42
70434;BME280;57876;47.792;12.960;2023-01-16T07:27:39;95051.63;;;17.08;45.26
70434;BME280;57876;47.792;12.960;2023-01-16T07:30:04;95056.69;;;17.06;44.90
70434;BME280;57876;47.792;12.960;2023-01-16T07:32:29;95047.31;;;17.07;45.35
70434;BME280;57876;47.792;12.960;2023-01-16T07:34:53;95051.63;;;17.08;45.46
70434;BME280;57876;47.792;12.960;2023-01-16T07:37:18;95041.84;;;17.07;44.95
70434;BME280;57876;47.792;12.960;2023-01-16T07:39:42;95021.59;;;17.08;45.33
70434;BME280;57876;47.792;12.960;2023-01-16T07:42:07;95016.88;;;17.05;45.50
70434;BME280;57876;47.792;12.960;2023-01-16T07:44:32;94999.28;;;17.02;45.50
70434;BME280;57876;47.792;12.960;2023-01-16T07:46:56;95000.88;;;17.07;44.96
70434;BME280;57876;47.792;12.960;2023-01-16T07:49:21;94987.53;;;17.02;44.98
70434;BME280;57876;47.792;12.960;2023-01-16T07:51:45;94986.84;;;17.05;45.05
70434;BME280;57876;47.792;12.960;2023-01-16T07:54:10;94972.00;;;17.06;45.26
70434;BME280;57876;47.792;12.960;2023-01-16T07:56:35;94967.72;;;17.05;45.15
70434;BME280;57876;47.792;12.960;2023-01-16T07:58:59;94947.31;;;16.99;45.45
70434;BME280;57876;47.792;12.960;2023-01-16T08:01:24;94943.84;;;17.02;45.01
70434;BME280;57876;47.792;12.960;2023-01-16T08:03:48;94934.94;;;17.05;45.29
70434;BME280;57876;47.792;12.960;2023-01-16T08:06:13;94929.47;;;17.05;45.36
70434;BME280;57876;47.792;12.960;2023-01-16T08:08:37;94904.50;;;17.06;44.83
70434;BME280;57876;47.792;12.960;2023-01-16T08:11:01;94899.44;;;17.05;44.91
70434;BME280;57876;47.792;12.960;2023-01-16T08:13:49;94895.53;;;17.06;45.01
70434;BME280;57876;47.792;12.960;2023-01-16T08:16:13;94867.38;;;17.02;45.13
70434;BME280;57876;47.792;12.960;2023-01-16T08:18:38;94860.03;;;17.06;44.89
70434;BME280;57876;47.792;12.960;2023-01-16T08:21:02;94849.47;;;17.04;45.24
70434;BME280;57876;47.792;12.960;2023-01-16T08:23:26;94838.16;;;17.02;45.39
70434;BME280;57876;47.792;12.960;2023-01-16T08:25:51;94834.66;;;17.05;45.19
70434;BME280;57876;47.792;12.960;2023-01-16T08:28:16;94829.56;;;17.04;44.83
70434;BME280;57876;47.792;12.960;2023-01-16T08:30:40;94817.06;;;17.03;44.76
70434;BME280;57876;47.792;12.960;2023-01-16T08:33:05;94803.00;;;17.01;45.09
70434;BME280;57876;47.792;12.960;2023-01-16T08:35:29;94811.63;;;17.03;44.92
70434;BME280;57876;47.792;12.960;2023-01-16T08:37:53;94804.19;;;17.03;45.11
70434;BME280;57876;47.792;12.960;2023-01-16T08:40:18;94794.44;;;17.02;44.95
70434;BME280;57876;47.792;12.960;2023-01-16T08:42:43;94788.16;;;16.98;45.01
70434;BME280;57876;47.792;12.960;2023-01-16T08:45:26;94771.00;;;16.98;45.26
70434;BME280;57876;47.792;12.960;2023-01-16T08:48:09;94775.28;;;16.99;44.93
70434;BME280;57876;47.792;12.960;2023-01-16T08:50:58;94766.72;;;17.00;45.12
70434;BME280;57876;47.792;12.960;2023-01-16T08:53:41;94755.81;;;17.00;45.43
70434;BME280;57876;47.792;12.960;2023-01-16T08:56:06;94733.50;;;16.94;45.40
70434;BME280;57876;47.792;12.960;2023-01-16T08:58:30;94728.44;;;16.97;45.33
70434;BME280;57876;47.792;12.960;2023-01-16T09:00:55;94733.56;;;17.02;44.83
70434;BME280;57876;47.792;12.960;2023-01-16T09:03:19;94716.41;;;17.01;45.06
70434;BME280;57876;47.792;12.960;2023-01-16T09:05:44;94711.72;;;17.02;44.83
70434;BME280;57876;47.792;12.960;2023-01-16T09:08:09;94710.16;;;17.01;45.35
70434;BME280;57876;47.792;12.960;2023-01-16T09:10:33;94698.06;;;17.02;44.95
70434;BME280;57876;47.792;12.960;2023-01-16T09:12:58;94705.09;;;17.03;45.38
70434;BME280;57876;47.792;12.960;2023-01-16T09:15:41;94691.44;;;17.03;45.16
70434;BME280;57876;47.792;12.960;2023-01-16T09:18:05;94685.56;;;17.01;45.18
70434;BME280;57876;47.792;12.960;2023-01-16T09:20:29;94678.16;;;17.01;45.23
70434;BME280;57876;47.792;12.960;2023-01-16T09:22:58;94677.38;;;17.01;45.34
70434;BME280;57876;47.792;12.960;2023-01-16T09:25:23;94680.53;;;17.03;45.13
70434;BME280;57876;47.792;12.960;2023-01-16T09:27:47;94664.91;;;17.03;45.01
70434;BME280;57876;47.792;12.960;2023-01-16T09:30:12;94664.91;;;17.03;44.85
70434;BME280;57876;47.792;12.960;2023-01-16T09:32:36;94653.22;;;17.03;44.86
70434;BME280;57876;47.792;12.960;2023-01-16T09:35:01;94656.34;;;17.05;45.07
70434;BME280;57876;47.792;12.960;2023-01-16T09:37:25;94640.34;;;17.03;45.26
70434;BME280;57876;47.792;12.960;2023-01-16T09:39:49;94644.25;;;17.06;44.93
70434;BME280;57876;47.792;12.960;2023-01-16T09:45:29;94629.41;;;17.00;44.80
70434;BME280;57876;47.792;12.960;2023-01-16T09:47:59;94617.31;;;17.01;44.85
70434;BME280;57876;47.792;12.960;2023-01-16T09:50:52;94612.66;;;17.05;45.01
70434;BME280;57876;47.792;12.960;2023-01-16T09:53:27;94605.63;;;17.04;45.15
70434;BME280;57876;47.792;12.960;2023-01-16T11:06:31;94361.81;;;17.10;44.60
70434;BME280;57876;47.792;12.960;2023-01-16T11:09:16;94358.28;;;17.10;44.31
70434;BME280;57876;47.792;12.960;2023-01-16T11:11:41;94347.75;;;17.08;44.40
70434;BME280;57876;47.792;12.960;2023-01-16T11:14:28;94337.22;;;17.07;44.70
70434;BME280;57876;47.792;12.960;2023-01-16T11:17:29;94335.66;;;17.09;44.31
70434;BME280;57876;47.792;12.960;2023-01-16T11:22:48;94308.72;;;17.04;44.79
70434;BME280;57876;47.792;12.960;2023-01-16T11:25:17;94302.91;;;17.02;44.70
70434;BME280;57876;47.792;12.960;2023-01-16T11:27:45;94304.44;;;17.07;44.48
70434;BME280;57876;47.792;12.960;2023-01-16T11:30:16;94291.19;;;17.05;44.45
70434;BME280;57876;47.792;12.960;2023-01-16T11:32:42;94291.97;;;17.06;44.80
70434;BME280;57876;47.792;12.960;2023-01-16T11:35:18;94281.44;;;17.08;44.35
70434;BME280;57876;47.792;12.960;2023-01-16T11:37:44;94277.13;;;17.07;44.80
70434;BME280;57876;47.792;12.960;2023-01-16T11:40:17;94266.22;;;17.03;44.29
70434;BME280;57876;47.792;12.960;2023-01-16T11:43:00;94256.06;;;17.07;44.64
70434;BME280;57876;47.792;12.960;2023-01-16T11:45:55;94251.78;;;17.06;44.61
70434;BME280;57876;47.792;12.960;2023-01-16T11:48:42;94237.34;;;17.06;44.40
70434;BME280;57876;47.792;12.960;2023-01-16T11:51:14;94217.44;;;17.02;44.48
70434;BME280;57876;47.792;12.960;2023-01-16T11:53:42;94222.91;;;17.05;44.80
70434;BME280;57876;47.792;12.960;2023-01-16T11:56:34;94211.22;;;17.08;44.34
70434;BME280;57876;47.792;12.960;2023-01-16T11:59:24;94195.59;;;17.09;44.39
70434;BME280;57876;47.792;12.960;2023-01-16T12:10:48;94170.63;;;17.07;44.93
70434;BME280;57876;47.792;12.960;2023-01-16T12:13:23;94162.44;;;17.07;44.29
70434;BME280;57876;47.792;12.960;2023-01-16T12:16:15;94150.38;;;17.08;44.72
70434;BME280;57876;47.792;12.960;2023-01-16T12:19:28;94146.81;;;17.07;44.32
70434;BME280;57876;47.792;12.960;2023-01-16T12:21:54;94136.72;;;17.08;44.46
70434;BME280;57876;47.792;12.960;2023-01-16T12:27:09;94122.25;;;17.07;44.53
70434;BME280;57876;47.792;12.960;2023-01-16T12:29:56;94118.75;;;17.07;44.36
70434;BME280;57876;47.792;12.960;2023-01-16T12:35:14;94102.34;;;17.07;44.84
70434;BME280;57876;47.792;12.960;2023-01-16T12:38:08;94094.56;;;17.02;44.41
70434;BME280;57876;47.792;12.960;2023-01-16T12:45:59;94060.22;;;17.04;44.42
70434;BME280;57876;47.792;12.960;2023-01-16T13:04:41;94031.41;;;17.00;44.41
70434;BME280;57876;47.792;12.960;2023-01-16T13:07:13;94033.72;;;17.01;44.57
70434;BME280;57876;47.792;12.960;2023-01-16T13:09:57;94025.94;;;16.96;44.67
70434;BME280;57876;47.792;12.960;2023-01-16T13:12:42;94031.41;;;17.00;44.25
70434;BME280;57876;47.792;12.960;2023-01-16T13:15:49;94034.50;;;17.02;44.52
70434;BME280;57876;47.792;12.960;2023-01-16T13:18:32;94021.63;;;16.99;44.70
70434;BME280;57876;47.792;12.960;2023-01-16T13:21:02;94015.78;;;16.97;44.37
70434;BME280;57876;47.792;12.960;2023-01-16T13:26:07;94019.28;;;17.01;44.88
70434;BME280;57876;47.792;12.960;2023-01-16T13:28:39;94012.28;;;17.00;44.73
70434;BME280;57876;47.792;12.960;2023-01-16T13:31:36;94013.44;;;16.99;44.71
70434;BME280;57876;47.792;12.960;2023-01-16T13:34:09;94015.78;;;17.04;44.66
70434;BME280;57876;47.792;12.960;2023-01-16T13:36:48;94004.06;;;17.03;44.46
70434;BME280;57876;47.792;12.960;2023-01-16T13:42:14;93997.84;;;16.99;44.08
70434;BME280;57876;47.792;12.960;2023-01-16T13:44:42;93991.22;;;16.97;44.48
70434;BME280;57876;47.792;12.960;2023-01-16T13:47:40;94015.00;;;17.03;44.35
70434;BME280;57876;47.792;12.960;2023-01-16T13:50:18;94018.09;;;17.02;44.70
70434;BME280;57876;47.792;12.960;2023-01-16T13:52:45;94018.09;;;17.02;44.38
70434;BME280;57876;47.792;12.960;2023-01-16T13:55:33;94023.97;;;17.00;44.63
70434;BME280;57876;47.792;12.960;2023-01-16T13:58:19;94020.06;;;17.05;44.28
70434;BME280;57876;47.792;12.960;2023-01-16T14:00:44;94018.50;;;17.04;44.39
70434;BME280;57876;47.792;12.960;2023-01-16T14:03:22;94010.72;;;16.99;44.49
70434;BME280;57876;47.792;12.960;2023-01-16T14:05:52;94018.09;;;17.02;44.30
70434;BME280;57876;47.792;12.960;2023-01-16T14:08:20;94028.28;;;17.05;44.60
70434;BME280;57876;47.792;12.960;2023-01-16T14:13:38;94021.22;;;17.04;44.52
70434;BME280;57876;47.792;12.960;2023-01-16T14:21:28;94022.78;;;17.01;44.67
70434;BME280;57876;47.792;12.960;2023-01-16T14:23:56;94015.78;;;17.00;44.80
70434;BME280;57876;47.792;12.960;2023-01-16T14:26:52;94023.97;;;17.04;44.25
70434;BME280;57876;47.792;12.960;2023-01-16T14:32:15;94018.91;;;17.02;44.65
70434;BME280;57876;47.792;12.960;2023-01-16T14:37:28;94016.19;;;17.02;44.43
70434;BME280;57876;47.792;12.960;2023-01-16T14:42:44;94022.81;;;17.05;44.79
70434;BME280;57876;47.792;12.960;2023-01-16T14:45:30;94007.19;;;17.05;44.72
70434;BME280;57876;47.792;12.960;2023-01-16T14:48:31;94004.06;;;17.03;43.90
70434;BME280;57876;47.792;12.960;2023-01-16T14:51:34;94011.09;;;17.01;44.62
70434;BME280;57876;47.792;12.960;2023-01-16T14:54:22;94024.34;;;17.06;44.59
70434;BME280;57876;47.792;12.960;2023-01-16T14:57:19;94015.38;;;17.05;44.31
70434;BME280;57876;47.792;12.960;2023-01-16T15:02:17;94005.66;;;16.97;44.69
70434;BME280;57876;47.792;12.960;2023-01-16T15:04:49;94009.16;;;17.01;44.41
70434;BME280;57876;47.792;12.960;2023-01-16T15:07:16;94011.09;;;17.01;44.78
70434;BME280;57876;47.792;12.960;2023-01-16T15:09:43;94013.84;;;17.01;44.35
70434;BME280;57876;47.792;12.960;2023-01-16T15:12:12;94012.69;;;16.94;44.28
70434;BME280;57876;47.792;12.960;2023-01-16T15:14:37;94014.25;;;16.92;44.23
70434;BME280;57876;47.792;12.960;2023-01-16T15:17:34;94019.28;;;17.01;44.76
70434;BME280;57876;47.792;12.960;2023-01-16T15:20:29;94011.91;;;16.98;44.19
70434;BME280;57876;47.792;12.960;2023-01-16T15:23:36;94016.56;;;17.01;44.31
70434;BME280;57876;47.792;12.960;2023-01-16T15:31:24;94014.22;;;16.99;44.57
70434;BME280;57876;47.792;12.960;2023-01-16T15:34:21;94013.06;;;17.00;44.85
70434;BME280;57876;47.792;12.960;2023-01-16T15:36:51;94007.97;;;16.99;44.60
70434;BME280;57876;47.792;12.960;2023-01-16T15:39:33;94012.25;;;17.03;44.55
70434;BME280;57876;47.792;12.960;2023-01-16T15:42:38;94032.16;;;17.04;44.35
70434;BME280;57876;47.792;12.960;2023-01-16T15:45:23;94026.31;;;17.05;44.56
70434;BME280;57876;47.792;12.960;2023-01-16T15:48:51;94035.28;;;17.06;44.38
70434;BME280;57876;47.792;12.960;2023-01-16T15:51:20;94031.38;;;17.03;44.64
70434;BME280;57876;47.792;12.960;2023-01-16T15:53:46;94023.56;;;17.02;44.30
70434;BME280;57876;47.792;12.960;2023-01-16T15:56:35;94040.75;;;17.06;44.34
70434;BME280;57876;47.792;12.960;2023-01-16T15:59:02;94033.72;;;17.05;44.54
70434;BME280;57876;47.792;12.960;2023-01-16T16:01:32;94035.28;;;17.06;44.38
70434;BME280;57876;47.792;12.960;2023-01-16T16:03:58;94038.41;;;17.08;44.72
70434;BME280;57876;47.792;12.960;2023-01-16T16:06:26;94043.84;;;17.08;44.27
70434;BME280;57876;47.792;12.960;2023-01-16T16:08:53;94031.38;;;17.07;44.31
70434;BME280;57876;47.792;12.960;2023-01-16T16:11:24;94034.88;;;17.07;44.11
70434;BME280;57876;47.792;12.960;2023-01-16T16:17:29;94039.16;;;17.08;44.22